Murfreesboro, TN (37131)

2:11 AM CST on December 22, 2014 (GMT -0600)
RIVERDALE | Change Station
CLOSE
Current Station
Personal Weather Station
Location: Murfreesboro, TN
Elevation: 617 ft
Nearby Weather Stations

Elev 617 ft 35.81 °N, 86.41 °W | Updated 0 second ago

Overcast
Overcast
49.3 °F
Feels Like 49 °F
N
3.1
Wind Variable Wind from East
Gusts 3.1 mph

Today
High -- | Low -- °F
--% Chance of Precip.
Yesterday
High -- | Low -- °F
Precip. -- in
6:52 AM 4:36 PM
New Moon, 0% visible
Pressure 30.04 in
Visibility 10.0 miles
Clouds Mostly Cloudy 1900 ft
Overcast 2600 ft
Windchill 49 °F
Dew Point 48 °F
Humidity 94%
Rainfall 0.00 in
Snow Depth Not available.
UV 0.0 out of 12
Pollen .10 out of 12
Air Quality Not available.
Flu Activity Not available.
METAR KMQY 220756Z AUTO 00000KT 10SM BKN019 OVC026 06/04 A3001 RMK AO2 T00550044 BKN V SCT SLP171

More Conditions Fewer Conditions

Pressure 30.04 in
Visibility 10.0 miles
Clouds Mostly Cloudy 1900 ft
Overcast 2600 ft
Windchill 49 °F
Dew Point 48 °F
Humidity 94%
Rainfall 0.00 in
Snow Depth Not available.
UV 0.0 out of 12
Pollen .10 out of 12
Air Quality Not available.
Flu Activity Not available.
METAR KMQY 220756Z AUTO 00000KT 10SM BKN019 OVC026 06/04 A3001 RMK AO2 T00550044 BKN V SCT SLP171

More Conditions Fewer Conditions

10-Day Weather Forecast

Almanac

Astronomy

Dec. 22, 2014 Rise Set
Actual Time
Civil Twilight
Nautical Twilight
Astronomical Twilight
Moon
Length of Visible Light
Length of Day
Tomorrow will be .
, % of the Moon is Illuminated

Today's Extremes

State Highs State Lows

Community

WunderPhotos

Upload Photos

1,779,564 photos uploaded!

WunderBlogs® & News

Nearby

Air Quality

  Air Quality AQ Index Pollutant
Not available.

Snow Depth

Station Depth Elevation

Earthquake Activity

City Distance Mag. Time & Date
Minimum magnitude displayed is 2.5.

Coastal Water Temperatures

Place Temperature

Nearby Weather Stations